MUCF/CFG METAR and TAF weather

Enter ICAO airport designator
Station Type Date Time Source
MUCF METAR 2020/01/27 16:50 UTC NOAA

MUCF 271650Z 26005KT 230V300 9999 SCT020 27/18 Q1016


Station Type Date Time Source
MUCF Decoded METAR 2020/01/27 16:50 UTC NOAA

Cienfuegos, Las Villas, Cuba (MUCF) 22-09N 080-24W 39M
Jan 27, 2020 - 11:50 AM EST / 2020.01.27 1650 UTC
Wind: from the W (260 degrees) at 6 MPH (5 KT) (direction variable):0
Visibility: greater than 7 mile(s):0
Sky conditions: partly cloudy
Temperature: 80 F (27 C)
Dew Point: 64 F (18 C)
Relative Humidity: 57%
Pressure (altimeter): 30.00 in. Hg (1016 hPa)
ob: MUCF 271650Z 26005KT 230V300 9999 SCT020 27/18 Q1016
cycle: 17

Station Type Date Time Source
MUCF TAF 2020/01/27 18:03 UTC NOAA

MUCF 271700Z 2718/2806 22008KT 9000 SCT020
BECMG 2801/2803 VRB03KT

Example: see airport list